Time;durP1;ratioP1;P1;durP2;ratioP2;P2;SDS_P1;SDS_P2;PMS_P1;PMS_P2;Temp;Humidity;BMP_temperature;BMP_pressure;BME280_temperature;BME280_humidity;BME280_pressure;Samples;Min_cycle;Max_cycle;Signal;HPM_P1;HPM_P2
2022/05/30 00:02:19;;;;;;;0.10;0.10;;;;;;;;;;6229272;22;20007;-94
2022/05/30 00:04:45;;;;;;;0.10;0.10;;;;;;;;;;6229686;22;20319;-93
2022/05/30 00:07:11;;;;;;;0.10;0.10;;;;;;;;;;6229683;22;20094;-94
2022/05/30 00:09:37;;;;;;;0.10;0.10;;;;;;;;;;6229235;22;20012;-93
2022/05/30 00:12:04;;;;;;;0.10;0.10;;;;;;;;;;6229334;22;20019;-96
2022/05/30 00:14:30;;;;;;;0.10;0.10;;;;;;;;;;6229101;22;20098;-93
2022/05/30 00:16:59;;;;;;;0.10;0.10;;;;;;;;;;6229263;22;20047;-93
2022/05/30 00:19:25;;;;;;;0.10;0.10;;;;;;;;;;6229403;22;20016;-95
2022/05/30 00:21:53;;;;;;;0.10;0.10;;;;;;;;;;6229325;22;20008;-95
2022/05/30 00:24:19;;;;;;;0.10;0.10;;;;;;;;;;6231656;22;20011;-94
2022/05/30 00:26:45;;;;;;;0.10;0.10;;;;;;;;;;6231443;22;20007;-95
2022/05/30 00:29:11;;;;;;;0.10;0.10;;;;;;;;;;6231418;22;20441;-94
2022/05/30 00:31:37;;;;;;;0.10;0.10;;;;;;;;;;6231315;22;20094;-94
2022/05/30 00:34:03;;;;;;;0.10;0.10;;;;;;;;;;6231872;22;20060;-95
2022/05/30 00:36:29;;;;;;;0.10;0.10;;;;;;;;;;6231541;22;20328;-94
2022/05/30 00:55:19;;;;;;;0.10;0.10;;;;;;;;;;6257432;22;20028;-96
2022/05/30 00:57:59;;;;;;;0.10;0.10;;;;;;;;;;6268031;22;20031;-93
2022/05/30 01:00:40;;;;;;;0.10;0.10;;;;;;;;;;6305035;22;20011;-93
2022/05/30 01:08:47;;;;;;;0.10;0.10;;;;;;;;;;6260855;22;20042;-93
2022/05/30 01:11:13;;;;;;;0.10;0.10;;;;;;;;;;6228356;22;20021;-92
2022/05/30 01:14:00;;;;;;;0.10;0.10;;;;;;;;;;6227514;22;20016;-96
2022/05/30 01:16:26;;;;;;;0.10;0.10;;;;;;;;;;6225719;22;20014;-92
2022/05/30 01:18:53;;;;;;;0.10;0.10;;;;;;;;;;6200725;22;20019;-93
2022/05/30 01:21:33;;;;;;;0.10;0.10;;;;;;;;;;6200562;22;20015;-92
2022/05/30 01:24:06;;;;;;;0.10;0.10;;;;;;;;;;6200529;22;20362;-94
2022/05/30 01:26:36;;;;;;;0.10;0.10;;;;;;;;;;6230748;22;20043;-95
2022/05/30 01:29:04;;;;;;;0.10;0.10;;;;;;;;;;6200714;22;20014;-93
2022/05/30 01:31:32;;;;;;;0.10;0.10;;;;;;;;;;6200807;22;20019;-95
2022/05/30 01:34:33;;;;;;;0.10;0.10;;;;;;;;;;6202398;22;20020;-96
2022/05/30 01:37:05;;;;;;;0.10;0.10;;;;;;;;;;6252833;22;20106;-94
2022/05/30 01:39:33;;;;;;;0.10;0.10;;;;;;;;;;6226396;22;20141;-96
2022/05/30 01:42:06;;;;;;;0.10;0.10;;;;;;;;;;6200835;22;20438;-95
2022/05/30 01:48:09;;;;;;;0.10;0.10;;;;;;;;;;6144732;23;20020;-94
2022/05/30 01:50:35;;;;;;;0.10;0.10;;;;;;;;;;6143955;23;20016;-95
2022/05/30 01:53:07;;;;;;;0.10;0.10;;;;;;;;;;6189502;22;20187;-95
2022/05/30 01:55:33;;;;;;;0.10;0.10;;;;;;;;;;6201251;22;20015;-95
2022/05/30 01:58:02;;;;;;;0.10;0.10;;;;;;;;;;6201584;22;20037;-96
2022/05/30 02:00:31;;;;;;;0.10;0.10;;;;;;;;;;6204071;22;20018;-95
2022/05/30 02:02:59;;;;;;;0.10;0.10;;;;;;;;;;6200949;22;20059;-95
2022/05/30 02:11:18;;;;;;;0.22;0.20;;;;;;;;;;6253957;22;20020;-94
2022/05/30 02:13:51;;;;;;;0.10;0.10;;;;;;;;;;6228601;22;20375;-96
2022/05/30 02:19:05;;;;;;;0.10;0.10;;;;;;;;;;6280475;22;20101;-95
2022/05/30 02:31:56;;;;;;;0.10;0.10;;;;;;;;;;6268573;22;20019;-96
2022/05/30 02:37:52;;;;;;;;;;;;;;;;;;;;;
2022/05/30 02:46:32;;;;;;;0.10;0.10;;;;;;;;;;6311092;22;20030;-93
2022/05/30 02:48:58;;;;;;;0.10;0.10;;;;;;;;;;6230172;22;20011;-93
2022/05/30 02:51:24;;;;;;;0.10;0.10;;;;;;;;;;6230125;22;20015;-93
2022/05/30 02:53:59;;;;;;;0.10;0.10;;;;;;;;;;6230354;22;20478;-96
2022/05/30 02:56:25;;;;;;;0.10;0.10;;;;;;;;;;6231073;22;20086;-96
2022/05/30 03:01:31;;;;;;;0.10;0.10;;;;;;;;;;6246116;22;20493;-96
2022/05/30 03:03:57;;;;;;;0.10;0.10;;;;;;;;;;6192534;22;20070;-94
2022/05/30 03:09:48;;;;;;;0.10;0.10;;;;;;;;;;6278953;22;20007;-94
2022/05/30 03:12:14;;;;;;;0.10;0.10;;;;;;;;;;6200000;22;20012;-93
2022/05/30 03:14:40;;;;;;;0.10;0.10;;;;;;;;;;6224708;22;20012;-95
2022/05/30 03:17:16;;;;;;;0.10;0.10;;;;;;;;;;6230067;22;20008;-96
2022/05/30 03:19:45;;;;;;;0.10;0.10;;;;;;;;;;6200828;22;20026;-95
2022/05/30 03:22:14;;;;;;;0.10;0.10;;;;;;;;;;6187338;22;20019;-95
2022/05/30 03:24:43;;;;;;;0.10;0.10;;;;;;;;;;6249675;22;20012;-95
2022/05/30 03:27:09;;;;;;;0.10;0.10;;;;;;;;;;6203904;22;20011;-95
2022/05/30 03:29:35;;;;;;;0.10;0.10;;;;;;;;;;6205695;22;20087;-93
2022/05/30 03:32:01;;;;;;;0.10;0.10;;;;;;;;;;6206042;22;20015;-93
2022/05/30 03:34:27;;;;;;;0.10;0.10;;;;;;;;;;6227239;22;20003;-92
2022/05/30 03:36:53;;;;;;;0.10;0.10;;;;;;;;;;6226105;22;20061;-92
2022/05/30 03:39:19;;;;;;;0.10;0.10;;;;;;;;;;6202250;22;20043;-92
2022/05/30 03:41:45;;;;;;;0.10;0.10;;;;;;;;;;6199038;22;20047;-95
2022/05/30 03:44:11;;;;;;;0.10;0.10;;;;;;;;;;6199103;22;20012;-91
2022/05/30 03:46:37;;;;;;;0.10;0.10;;;;;;;;;;6199538;22;20019;-92
2022/05/30 03:49:04;;;;;;;0.10;0.10;;;;;;;;;;6199275;22;20437;-92
2022/05/30 03:51:30;;;;;;;0.10;0.10;;;;;;;;;;6224014;22;20073;-92
2022/05/30 03:53:56;;;;;;;0.10;0.10;;;;;;;;;;6198946;22;20015;-92
2022/05/30 03:56:22;;;;;;;0.10;0.10;;;;;;;;;;6223925;22;20012;-93
2022/05/30 03:58:49;;;;;;;0.10;0.10;;;;;;;;;;6199088;22;20432;-92
2022/05/30 04:01:15;;;;;;;0.10;0.10;;;;;;;;;;6199077;22;20016;-93
2022/05/30 04:03:41;;;;;;;0.10;0.10;;;;;;;;;;6199182;22;20074;-94
2022/05/30 04:06:08;;;;;;;0.10;0.10;;;;;;;;;;6224160;22;20047;-94
2022/05/30 04:08:34;;;;;;;0.10;0.10;;;;;;;;;;6199176;22;20007;-94
2022/05/30 04:11:00;;;;;;;0.10;0.10;;;;;;;;;;6199699;22;20453;-95
2022/05/30 04:13:27;;;;;;;0.10;0.10;;;;;;;;;;6199384;22;20030;-94
2022/05/30 04:15:53;;;;;;;0.10;0.10;;;;;;;;;;6199395;22;20438;-94
2022/05/30 04:18:19;;;;;;;0.10;0.10;;;;;;;;;;6200456;22;20437;-93
2022/05/30 04:20:46;;;;;;;0.10;0.10;;;;;;;;;;6200260;22;20332;-93
2022/05/30 04:23:12;;;;;;;0.10;0.10;;;;;;;;;;6198810;22;20079;-92
2022/05/30 04:25:38;;;;;;;0.10;0.10;;;;;;;;;;6198971;22;20018;-93
2022/05/30 04:28:07;;;;;;;0.10;0.10;;;;;;;;;;6198834;22;20048;-93
2022/05/30 04:30:33;;;;;;;0.10;0.10;;;;;;;;;;6223723;22;20056;-92
2022/05/30 04:32:59;;;;;;;0.10;0.10;;;;;;;;;;6198396;22;20015;-93
2022/05/30 04:35:25;;;;;;;0.10;0.10;;;;;;;;;;6198586;22;20022;-93
2022/05/30 04:37:51;;;;;;;0.10;0.10;;;;;;;;;;6199065;22;20008;-93
2022/05/30 04:40:19;;;;;;;0.10;0.10;;;;;;;;;;6223868;22;20019;-93
2022/05/30 04:46:26;;;;;;;;;;;;;;;;;;;;;
2022/05/30 04:49:22;;;;;;;0.10;0.10;;;;;;;;;;6225055;22;20012;-96
2022/05/30 04:56:29;;;;;;;;;;;;;;;;;;;;;
2022/05/30 05:24:39;;;;;;;0.10;0.10;;;;;;;;;;6149418;22;20017;-95
2022/05/30 05:27:14;;;;;;;0.10;0.10;;;;;;;;;;6251083;22;20018;-93
2022/05/30 05:29:40;;;;;;;0.10;0.10;;;;;;;;;;6227746;22;20322;-96
2022/05/30 05:32:07;;;;;;;0.10;0.10;;;;;;;;;;6251433;22;20532;-95
2022/05/30 05:34:33;;;;;;;0.10;0.10;;;;;;;;;;6225328;22;20016;-94
2022/05/30 05:36:59;;;;;;;0.10;0.10;;;;;;;;;;6225767;22;20015;-95
2022/05/30 05:39:26;;;;;;;0.10;0.10;;;;;;;;;;6225726;22;20064;-94
2022/05/30 05:41:52;;;;;;;0.10;0.10;;;;;;;;;;6250678;22;20516;-94
2022/05/30 05:44:18;;;;;;;0.10;0.10;;;;;;;;;;6225462;22;20088;-95
2022/05/30 05:46:45;;;;;;;0.10;0.10;;;;;;;;;;6225950;22;20014;-96
2022/05/30 05:49:16;;;;;;;0.10;0.10;;;;;;;;;;6229720;22;20011;-96
2022/05/30 05:52:08;;;;;;;;;;;;;;;;;;;;;
2022/05/30 06:09:57;;;;;;;0.10;0.10;;;;;;;;;;6278555;22;20345;-94
2022/05/30 06:36:42;;;;;;;0.10;0.10;;;;;;;;;;6275827;22;20028;-95
2022/05/30 06:39:08;;;;;;;0.10;0.10;;;;;;;;;;6236409;22;20035;-91
2022/05/30 06:41:34;;;;;;;0.10;0.10;;;;;;;;;;6209811;22;20020;-92
2022/05/30 06:44:04;;;;;;;0.10;0.10;;;;;;;;;;6202222;22;20345;-92
2022/05/30 06:46:31;;;;;;;0.10;0.10;;;;;;;;;;6202941;22;20051;-90
2022/05/30 06:49:16;;;;;;;0.10;0.10;;;;;;;;;;6210350;22;20015;-96
2022/05/30 06:54:47;;;;;;;0.10;0.10;;;;;;;;;;6248277;22;20027;-96
2022/05/30 07:00:05;;;;;;;0.10;0.10;;;;;;;;;;6228636;22;20027;-93
2022/05/30 07:02:36;;;;;;;0.10;0.10;;;;;;;;;;6229921;22;20678;-93
2022/05/30 07:05:02;;;;;;;0.10;0.10;;;;;;;;;;6198917;22;20440;-92
2022/05/30 07:07:28;;;;;;;0.10;0.10;;;;;;;;;;6199249;22;20019;-90
2022/05/30 07:09:59;;;;;;;0.10;0.10;;;;;;;;;;6199030;22;20333;-92
2022/05/30 07:12:25;;;;;;;0.10;0.10;;;;;;;;;;6223675;22;20035;-91
2022/05/30 07:14:52;;;;;;;0.10;0.10;;;;;;;;;;6223702;22;20453;-92
2022/05/30 07:17:25;;;;;;;0.10;0.10;;;;;;;;;;6223726;22;20438;-91
2022/05/30 07:19:51;;;;;;;0.10;0.10;;;;;;;;;;6249313;22;20023;-91
2022/05/30 07:22:17;;;;;;;0.10;0.10;;;;;;;;;;6198241;22;20074;-90
2022/05/30 07:24:43;;;;;;;0.10;0.10;;;;;;;;;;6198710;22;20094;-93
2022/05/30 07:27:09;;;;;;;0.10;0.10;;;;;;;;;;6198697;22;20011;-92
2022/05/30 07:29:40;;;;;;;0.10;0.10;;;;;;;;;;6198743;22;20094;-92
2022/05/30 07:32:06;;;;;;;0.10;0.10;;;;;;;;;;6223036;22;20466;-92
2022/05/30 07:34:32;;;;;;;0.10;0.10;;;;;;;;;;6198771;22;20007;-92
2022/05/30 07:36:59;;;;;;;0.10;0.10;;;;;;;;;;6198975;22;20011;-94
2022/05/30 07:39:25;;;;;;;0.10;0.10;;;;;;;;;;6198422;22;20082;-91
2022/05/30 07:41:51;;;;;;;0.10;0.10;;;;;;;;;;6198573;22;20059;-91
2022/05/30 07:44:18;;;;;;;0.10;0.10;;;;;;;;;;6222951;22;20016;-91
2022/05/30 07:46:45;;;;;;;0.10;0.10;;;;;;;;;;6246913;22;20014;-89
2022/05/30 07:49:14;;;;;;;0.10;0.10;;;;;;;;;;6198387;22;20281;-91
2022/05/30 07:51:42;;;;;;;0.10;0.10;;;;;;;;;;6198974;22;20069;-92
2022/05/30 07:54:08;;;;;;;0.10;0.10;;;;;;;;;;6199224;22;20107;-91
2022/05/30 07:56:35;;;;;;;0.10;0.10;;;;;;;;;;6198935;22;20046;-92
2022/05/30 07:59:01;;;;;;;0.10;0.10;;;;;;;;;;6223621;22;20090;-92
2022/05/30 08:01:27;;;;;;;0.10;0.10;;;;;;;;;;6223355;22;20091;-92
2022/05/30 08:03:53;;;;;;;0.10;0.10;;;;;;;;;;6198272;22;20023;-90
2022/05/30 08:06:21;;;;;;;0.10;0.10;;;;;;;;;;6198690;22;20337;-92
2022/05/30 08:09:09;;;;;;;0.10;0.10;;;;;;;;;;6199262;22;20004;-95
2022/05/30 08:12:06;;;;;;;;;;;;;;;;;;;;;
2022/05/30 08:17:44;;;;;;;0.10;0.10;;;;;;;;;;6260783;22;20025;-95
2022/05/30 08:37:34;;;;;;;0.13;0.13;;;;;;;;;;6268477;22;20110;-95
2022/05/30 08:42:46;;;;;;;0.10;0.10;;;;;;;;;;6280072;22;20050;-92
2022/05/30 08:45:18;;;;;;;0.10;0.10;;;;;;;;;;6255843;22;20094;-93
2022/05/30 08:47:55;;;;;;;0.10;0.10;;;;;;;;;;6232132;22;20421;-92
2022/05/30 08:50:24;;;;;;;0.10;0.10;;;;;;;;;;6231469;22;20011;-93
2022/05/30 08:52:57;;;;;;;0.10;0.10;;;;;;;;;;6283207;22;20447;-92
2022/05/30 08:55:38;;;;;;;0.10;0.10;;;;;;;;;;6231456;22;20015;-93
2022/05/30 08:58:23;;;;;;;0.10;0.10;;;;;;;;;;6231599;22;20015;-92
2022/05/30 09:00:56;;;;;;;0.10;0.10;;;;;;;;;;6256463;22;20559;-93
2022/05/30 09:03:34;;;;;;;0.10;0.10;;;;;;;;;;6231805;22;20011;-93
2022/05/30 09:06:30;;;;;;;0.10;0.10;;;;;;;;;;6231239;22;20018;-92
2022/05/30 09:09:02;;;;;;;0.10;0.10;;;;;;;;;;6243954;22;20011;-93
2022/05/30 09:11:33;;;;;;;0.10;0.10;;;;;;;;;;6231252;22;20019;-93
2022/05/30 09:13:59;;;;;;;0.10;0.10;;;;;;;;;;6231240;22;20011;-93
2022/05/30 09:19:48;;;;;;;0.10;0.10;;;;;;;;;;6331726;22;20018;-93
2022/05/30 09:22:14;;;;;;;0.10;0.10;;;;;;;;;;6281086;22;20015;-91
2022/05/30 09:25:55;;;;;;;0.10;0.10;;;;;;;;;;6253891;22;20003;-93
2022/05/30 09:27:32;;;;;;;0.10;0.10;;;;;;;;;;6268057;22;20019;-94
2022/05/30 09:38:47;;;;;;;0.10;0.10;;;;;;;;;;6270817;22;20016;-96
2022/05/30 09:41:18;;;;;;;0.10;0.10;;;;;;;;;;6228641;22;20352;-91
2022/05/30 09:43:46;;;;;;;0.10;0.10;;;;;;;;;;6200989;22;20054;-91
2022/05/30 09:46:52;;;;;;;0.10;0.10;;;;;;;;;;6201132;22;20022;-91
2022/05/30 09:49:19;;;;;;;0.10;0.10;;;;;;;;;;6213508;22;20008;-91
2022/05/30 09:51:46;;;;;;;0.10;0.10;;;;;;;;;;6224858;22;20016;-90
2022/05/30 09:54:24;;;;;;;0.10;0.10;;;;;;;;;;6224501;22;20015;-91
2022/05/30 09:56:51;;;;;;;0.10;0.10;;;;;;;;;;6223759;22;20090;-90
2022/05/30 09:59:28;;;;;;;0.10;0.10;;;;;;;;;;6198994;22;20039;-92
2022/05/30 10:01:54;;;;;;;0.10;0.10;;;;;;;;;;6224470;22;20022;-92
2022/05/30 10:04:31;;;;;;;0.10;0.10;;;;;;;;;;6199864;22;20043;-91
2022/05/30 10:07:15;;;;;;;0.10;0.10;;;;;;;;;;6225877;22;20015;-92
2022/05/30 10:09:43;;;;;;;0.10;0.10;;;;;;;;;;6199355;22;20528;-91
2022/05/30 10:12:10;;;;;;;0.10;0.10;;;;;;;;;;6198919;22;20020;-90
2022/05/30 10:14:39;;;;;;;0.10;0.10;;;;;;;;;;6224497;22;20012;-92
2022/05/30 10:17:15;;;;;;;0.10;0.10;;;;;;;;;;6195796;22;20310;-91
2022/05/30 10:19:42;;;;;;;0.10;0.10;;;;;;;;;;6199302;22;20012;-91
2022/05/30 10:28:20;;;;;;;0.10;0.10;;;;;;;;;;6249140;22;20016;-94
2022/05/30 10:31:05;;;;;;;0.10;0.10;;;;;;;;;;6249019;22;20012;-90
2022/05/30 10:33:50;;;;;;;0.10;0.10;;;;;;;;;;6248459;22;20011;-91
2022/05/30 10:36:31;;;;;;;0.10;0.10;;;;;;;;;;6223568;22;20054;-91
2022/05/30 10:39:11;;;;;;;0.10;0.10;;;;;;;;;;6223365;22;20019;-90
2022/05/30 10:41:39;;;;;;;0.10;0.10;;;;;;;;;;6199556;22;20023;-89
2022/05/30 10:44:21;;;;;;;0.10;0.10;;;;;;;;;;6248584;22;20043;-90
2022/05/30 10:46:56;;;;;;;0.10;0.10;;;;;;;;;;6224285;22;20061;-90
2022/05/30 10:49:22;;;;;;;0.10;0.10;;;;;;;;;;6248832;22;20012;-90
2022/05/30 10:51:55;;;;;;;0.10;0.10;;;;;;;;;;6223719;22;20452;-90
2022/05/30 10:54:30;;;;;;;0.10;0.10;;;;;;;;;;6223007;22;20090;-94
2022/05/30 10:57:00;;;;;;;0.10;0.10;;;;;;;;;;6248710;22;20046;-92
2022/05/30 10:59:33;;;;;;;0.10;0.10;;;;;;;;;;6198588;22;20016;-92
2022/05/30 11:02:11;;;;;;;0.10;0.10;;;;;;;;;;6198784;22;20019;-92
2022/05/30 11:04:46;;;;;;;0.10;0.10;;;;;;;;;;6198688;22;20008;-92
2022/05/30 11:07:17;;;;;;;0.10;0.10;;;;;;;;;;6198569;22;20043;-92
2022/05/30 11:09:49;;;;;;;0.10;0.10;;;;;;;;;;6224366;22;20019;-92
2022/05/30 11:12:29;;;;;;;0.10;0.10;;;;;;;;;;6232899;22;20038;-91
2022/05/30 11:15:14;;;;;;;0.10;0.10;;;;;;;;;;6215681;22;20019;-92
2022/05/30 11:17:41;;;;;;;0.10;0.10;;;;;;;;;;6270696;22;20019;-90
2022/05/30 11:20:13;;;;;;;0.10;0.10;;;;;;;;;;6217092;22;20022;-92
2022/05/30 11:22:41;;;;;;;0.10;0.10;;;;;;;;;;6250408;22;20045;-92
2022/05/30 11:25:08;;;;;;;0.10;0.10;;;;;;;;;;6227446;22;20011;-93
2022/05/30 11:27:36;;;;;;;0.10;0.10;;;;;;;;;;6225214;22;20020;-92
2022/05/30 11:30:08;;;;;;;0.10;0.10;;;;;;;;;;6203966;22;20016;-93
2022/05/30 11:32:34;;;;;;;0.10;0.10;;;;;;;;;;6223549;22;20008;-91
2022/05/30 11:35:00;;;;;;;0.10;0.10;;;;;;;;;;6223343;22;20091;-91
2022/05/30 11:37:26;;;;;;;0.10;0.10;;;;;;;;;;6223319;22;20012;-91
2022/05/30 11:40:10;;;;;;;0.10;0.10;;;;;;;;;;6223381;22;20038;-91
2022/05/30 11:42:55;;;;;;;0.10;0.10;;;;;;;;;;6222905;22;20464;-91
2022/05/30 11:45:24;;;;;;;0.10;0.10;;;;;;;;;;6223340;22;20015;-93
2022/05/30 11:47:59;;;;;;;0.10;0.10;;;;;;;;;;6198977;22;20016;-92
2022/05/30 11:50:44;;;;;;;0.10;0.10;;;;;;;;;;6223486;22;20379;-93
2022/05/30 11:53:14;;;;;;;0.10;0.10;;;;;;;;;;6222872;22;20403;-92
2022/05/30 11:55:48;;;;;;;0.10;0.10;;;;;;;;;;6223629;22;20456;-93
2022/05/30 11:58:33;;;;;;;0.15;0.15;;;;;;;;;;6198897;22;20023;-92
2022/05/30 12:00:59;;;;;;;0.10;0.10;;;;;;;;;;6222725;22;20054;-90
2022/05/30 12:03:29;;;;;;;0.10;0.10;;;;;;;;;;6198044;22;20015;-92
2022/05/30 12:05:58;;;;;;;0.10;0.10;;;;;;;;;;6247944;22;20376;-89
2022/05/30 12:08:43;;;;;;;0.10;0.10;;;;;;;;;;6222978;22;20012;-87
2022/05/30 12:11:27;;;;;;;0.10;0.10;;;;;;;;;;6248244;22;20008;-92
2022/05/30 12:14:02;;;;;;;0.10;0.10;;;;;;;;;;6222559;22;20404;-88
2022/05/30 12:16:42;;;;;;;0.10;0.10;;;;;;;;;;6248071;22;20060;-91
2022/05/30 12:24:57;;;;;;;0.10;0.10;;;;;;;;;;6226841;22;20034;-90
2022/05/30 12:27:29;;;;;;;0.10;0.10;;;;;;;;;;6222568;22;20008;-86
2022/05/30 12:29:55;;;;;;;0.10;0.10;;;;;;;;;;6248166;22;20233;-86
2022/05/30 12:32:33;;;;;;;0.10;0.10;;;;;;;;;;6222780;22;20023;-86
2022/05/30 12:37:46;;;;;;;0.10;0.10;;;;;;;;;;6247885;22;20105;-86
2022/05/30 12:40:27;;;;;;;0.10;0.10;;;;;;;;;;6247994;22;20022;-86
2022/05/30 12:43:14;;;;;;;0.10;0.10;;;;;;;;;;6247899;22;20337;-86
2022/05/30 12:45:47;;;;;;;0.10;0.10;;;;;;;;;;6222504;22;20069;-86
2022/05/30 12:48:32;;;;;;;0.10;0.10;;;;;;;;;;6197733;22;20008;-87
2022/05/30 12:51:01;;;;;;;0.10;0.10;;;;;;;;;;6247909;22;20011;-86
2022/05/30 12:53:45;;;;;;;0.10;0.10;;;;;;;;;;6222647;22;20016;-86
2022/05/30 12:56:11;;;;;;;0.10;0.10;;;;;;;;;;6247737;22;20021;-88
2022/05/30 12:58:37;;;;;;;0.10;0.10;;;;;;;;;;6197933;22;20413;-87
2022/05/30 13:01:08;;;;;;;0.10;0.10;;;;;;;;;;6247998;22;20018;-88
2022/05/30 13:03:35;;;;;;;0.10;0.10;;;;;;;;;;6217734;23;20107;-88
2022/05/30 13:06:10;;;;;;;0.10;0.10;;;;;;;;;;6221231;22;20043;-88
2022/05/30 13:08:55;;;;;;;0.10;0.10;;;;;;;;;;6200020;22;20433;-89
2022/05/30 13:11:32;;;;;;;0.10;0.10;;;;;;;;;;6222267;22;20030;-88
2022/05/30 13:14:02;;;;;;;0.10;0.10;;;;;;;;;;6222360;22;20007;-89
2022/05/30 13:16:32;;;;;;;0.10;0.10;;;;;;;;;;6197412;22;20015;-91
2022/05/30 13:18:58;;;;;;;0.10;0.10;;;;;;;;;;6222691;22;20023;-89
2022/05/30 13:21:24;;;;;;;0.10;0.10;;;;;;;;;;6223165;22;20004;-88
2022/05/30 13:23:50;;;;;;;0.10;0.10;;;;;;;;;;6197592;22;20016;-86
2022/05/30 13:26:17;;;;;;;0.10;0.10;;;;;;;;;;6197659;22;20057;-86
2022/05/30 13:28:44;;;;;;;0.10;0.10;;;;;;;;;;6222878;22;20019;-86
2022/05/30 13:31:10;;;;;;;0.10;0.10;;;;;;;;;;6197712;22;20016;-86
2022/05/30 13:33:49;;;;;;;0.10;0.10;;;;;;;;;;6219126;23;20047;-86
2022/05/30 13:36:16;;;;;;;0.10;0.10;;;;;;;;;;6212871;22;20090;-84
2022/05/30 13:38:43;;;;;;;0.10;0.10;;;;;;;;;;6224502;22;20438;-86
2022/05/30 13:41:12;;;;;;;0.10;0.10;;;;;;;;;;6249900;22;20015;-85
2022/05/30 13:43:41;;;;;;;0.10;0.10;;;;;;;;;;6249393;22;20380;-85
2022/05/30 13:46:07;;;;;;;0.10;0.10;;;;;;;;;;6249469;22;20441;-85
2022/05/30 13:48:33;;;;;;;0.10;0.10;;;;;;;;;;6249338;22;20018;-85
2022/05/30 13:51:01;;;;;;;0.10;0.10;;;;;;;;;;6224315;22;20058;-85
2022/05/30 13:53:28;;;;;;;0.10;0.10;;;;;;;;;;6199311;22;20041;-85
2022/05/30 13:55:59;;;;;;;0.10;0.10;;;;;;;;;;6249412;22;20015;-86
2022/05/30 13:58:25;;;;;;;0.10;0.10;;;;;;;;;;6224415;22;20099;-85
2022/05/30 14:00:51;;;;;;;0.10;0.10;;;;;;;;;;6249324;22;20348;-86
2022/05/30 14:03:19;;;;;;;0.10;0.10;;;;;;;;;;6249275;22;20046;-86
2022/05/30 14:05:45;;;;;;;0.10;0.10;;;;;;;;;;6198903;22;20015;-88
2022/05/30 14:08:39;;;;;;;0.10;0.10;;;;;;;;;;6199062;22;20436;-87
2022/05/30 14:11:06;;;;;;;0.10;0.10;;;;;;;;;;6221689;22;20008;-87
2022/05/30 14:13:38;;;;;;;0.10;0.10;;;;;;;;;;6198951;22;20071;-88
2022/05/30 14:16:06;;;;;;;0.10;0.10;;;;;;;;;;6198706;22;20023;-88
2022/05/30 14:18:44;;;;;;;0.10;0.10;;;;;;;;;;6199183;22;20039;-87
2022/05/30 14:21:10;;;;;;;0.10;0.10;;;;;;;;;;6249181;22;20207;-87
2022/05/30 14:23:39;;;;;;;0.10;0.10;;;;;;;;;;6198758;22;20068;-87
2022/05/30 14:26:06;;;;;;;0.10;0.10;;;;;;;;;;6223699;22;20445;-87
2022/05/30 14:28:35;;;;;;;0.10;0.10;;;;;;;;;;6224173;22;20041;-87
2022/05/30 14:31:02;;;;;;;0.10;0.10;;;;;;;;;;6223630;22;20008;-84
2022/05/30 14:33:29;;;;;;;0.10;0.10;;;;;;;;;;6198576;22;20019;-85
2022/05/30 14:36:15;;;;;;;0.10;0.10;;;;;;;;;;6223817;22;20015;-85
2022/05/30 14:38:44;;;;;;;0.10;0.10;;;;;;;;;;6248518;22;20015;-86
2022/05/30 14:41:10;;;;;;;0.10;0.10;;;;;;;;;;6198807;22;20023;-85
2022/05/30 14:43:48;;;;;;;0.10;0.10;;;;;;;;;;6223590;22;20066;-84
2022/05/30 14:46:32;;;;;;;0.10;0.10;;;;;;;;;;6223841;22;20007;-86
2022/05/30 14:48:58;;;;;;;0.10;0.10;;;;;;;;;;6248920;22;20011;-85
2022/05/30 14:51:27;;;;;;;0.10;0.10;;;;;;;;;;6223928;22;20015;-85
2022/05/30 14:53:54;;;;;;;0.10;0.10;;;;;;;;;;6223468;22;20187;-85
2022/05/30 14:56:24;;;;;;;0.20;0.20;;;;;;;;;;6198925;22;20008;-86
2022/05/30 14:58:51;;;;;;;0.10;0.10;;;;;;;;;;6223523;22;20008;-85
2022/05/30 15:01:21;;;;;;;0.10;0.10;;;;;;;;;;6223264;22;20011;-86
2022/05/30 15:04:02;;;;;;;0.10;0.10;;;;;;;;;;6223324;22;20019;-85
2022/05/30 15:06:34;;;;;;;0.10;0.10;;;;;;;;;;6226341;22;20075;-85
2022/05/30 15:09:00;;;;;;;0.10;0.10;;;;;;;;;;6248592;22;20091;-84
2022/05/30 15:11:26;;;;;;;0.10;0.10;;;;;;;;;;6250068;22;20019;-84
2022/05/30 15:13:53;;;;;;;0.10;0.10;;;;;;;;;;6276093;22;20042;-84
2022/05/30 15:16:20;;;;;;;0.10;0.10;;;;;;;;;;6248653;22;20016;-85
2022/05/30 15:18:46;;;;;;;0.10;0.10;;;;;;;;;;6248277;22;20305;-85
2022/05/30 15:21:19;;;;;;;0.10;0.10;;;;;;;;;;6198281;22;20447;-84
2022/05/30 15:23:45;;;;;;;0.10;0.10;;;;;;;;;;6248290;22;20022;-84
2022/05/30 15:26:11;;;;;;;0.10;0.10;;;;;;;;;;6223146;22;20007;-85
2022/05/30 15:28:39;;;;;;;0.10;0.10;;;;;;;;;;6224747;22;20011;-85
2022/05/30 15:31:04;;;;;;;0.10;0.10;;;;;;;;;;6198552;22;20007;-86
2022/05/30 15:33:30;;;;;;;0.10;0.10;;;;;;;;;;6248709;22;20441;-85
2022/05/30 15:35:56;;;;;;;0.10;0.10;;;;;;;;;;6248493;22;20012;-86
2022/05/30 15:38:22;;;;;;;0.10;0.10;;;;;;;;;;6248550;22;20057;-86
2022/05/30 15:40:48;;;;;;;0.10;0.10;;;;;;;;;;6223072;22;20053;-86
2022/05/30 15:43:14;;;;;;;0.10;0.10;;;;;;;;;;6242911;23;20083;-86
2022/05/30 15:45:40;;;;;;;0.10;0.10;;;;;;;;;;6243560;23;20012;-86
2022/05/30 15:48:06;;;;;;;0.10;0.10;;;;;;;;;;6222186;22;20069;-86
2022/05/30 15:50:34;;;;;;;0.10;0.10;;;;;;;;;;6222886;22;20004;-86
2022/05/30 15:58:29;;;;;;;0.10;0.10;;;;;;;;;;6252582;22;20020;-86
2022/05/30 16:00:55;;;;;;;0.10;0.10;;;;;;;;;;6248035;22;20054;-85
2022/05/30 16:03:24;;;;;;;0.10;0.10;;;;;;;;;;6247709;22;20012;-85
2022/05/30 16:05:51;;;;;;;0.10;0.10;;;;;;;;;;6198154;22;20011;-85
2022/05/30 16:08:18;;;;;;;0.10;0.10;;;;;;;;;;6222953;22;20333;-85
2022/05/30 16:10:44;;;;;;;0.10;0.10;;;;;;;;;;6222782;22;20004;-85
2022/05/30 16:13:10;;;;;;;0.10;0.10;;;;;;;;;;6197362;22;20534;-85
2022/05/30 16:15:36;;;;;;;0.10;0.10;;;;;;;;;;6247852;22;20386;-85
2022/05/30 16:18:02;;;;;;;0.10;0.10;;;;;;;;;;6222660;22;20022;-85
2022/05/30 16:20:28;;;;;;;0.10;0.10;;;;;;;;;;6222569;22;20016;-86
2022/05/30 16:22:56;;;;;;;0.10;0.10;;;;;;;;;;6247639;22;20318;-86
2022/05/30 16:25:22;;;;;;;0.10;0.10;;;;;;;;;;6223045;22;20354;-86
2022/05/30 16:27:49;;;;;;;0.10;0.10;;;;;;;;;;6222791;22;20441;-85
2022/05/30 16:30:17;;;;;;;0.10;0.10;;;;;;;;;;6222519;22;20012;-86
2022/05/30 16:32:43;;;;;;;0.10;0.10;;;;;;;;;;6197980;22;20353;-85
2022/05/30 16:35:09;;;;;;;0.10;0.10;;;;;;;;;;6222647;22;20453;-86
2022/05/30 16:37:35;;;;;;;0.10;0.10;;;;;;;;;;6222614;22;20023;-88
2022/05/30 16:40:01;;;;;;;0.10;0.10;;;;;;;;;;6197089;22;20023;-87
2022/05/30 16:42:27;;;;;;;0.10;0.10;;;;;;;;;;6197367;22;20467;-87
2022/05/30 16:44:53;;;;;;;0.10;0.10;;;;;;;;;;6197430;22;20012;-88
2022/05/30 16:47:21;;;;;;;0.10;0.10;;;;;;;;;;6222540;22;20094;-86
2022/05/30 16:49:47;;;;;;;0.10;0.10;;;;;;;;;;6247594;22;20498;-91
2022/05/30 16:52:17;;;;;;;0.10;0.10;;;;;;;;;;6197585;22;20015;-90
2022/05/30 16:54:45;;;;;;;0.10;0.10;;;;;;;;;;6223090;22;20023;-89
2022/05/30 16:57:11;;;;;;;0.10;0.10;;;;;;;;;;6197979;22;20094;-89
2022/05/30 16:59:37;;;;;;;0.10;0.10;;;;;;;;;;6197503;22;20047;-88
2022/05/30 17:02:03;;;;;;;0.10;0.10;;;;;;;;;;6197476;22;20092;-89
2022/05/30 17:04:30;;;;;;;0.10;0.10;;;;;;;;;;6223031;22;20091;-90
2022/05/30 17:06:56;;;;;;;0.10;0.10;;;;;;;;;;6224567;22;20018;-90
2022/05/30 17:09:25;;;;;;;0.10;0.10;;;;;;;;;;6224252;22;20008;-90
2022/05/30 17:11:51;;;;;;;0.15;0.15;;;;;;;;;;6199506;22;20022;-88
2022/05/30 17:14:17;;;;;;;0.10;0.10;;;;;;;;;;6249340;22;20016;-88
2022/05/30 17:16:44;;;;;;;0.10;0.10;;;;;;;;;;6224424;22;20034;-88
2022/05/30 17:19:10;;;;;;;0.10;0.10;;;;;;;;;;6222544;22;20026;-88
2022/05/30 17:21:36;;;;;;;0.10;0.10;;;;;;;;;;6198852;22;20034;-88
2022/05/30 17:24:02;;;;;;;0.10;0.10;;;;;;;;;;6199102;22;20039;-87
2022/05/30 17:29:18;;;;;;;0.10;0.10;;;;;;;;;;6228016;22;20345;-88
2022/05/30 17:31:44;;;;;;;0.10;0.10;;;;;;;;;;6199980;22;20045;-88
2022/05/30 17:34:10;;;;;;;0.10;0.10;;;;;;;;;;6198937;22;20090;-87
2022/05/30 17:36:36;;;;;;;0.10;0.10;;;;;;;;;;6224246;22;20838;-88
2022/05/30 17:39:04;;;;;;;0.10;0.10;;;;;;;;;;6224169;22;20027;-89
2022/05/30 17:41:30;;;;;;;0.10;0.10;;;;;;;;;;6224647;22;20019;-87
2022/05/30 17:43:56;;;;;;;0.10;0.10;;;;;;;;;;6199040;22;20082;-87
2022/05/30 17:46:35;;;;;;;0.10;0.10;;;;;;;;;;6198966;22;20007;-88
2022/05/30 17:49:07;;;;;;;0.10;0.10;;;;;;;;;;6249156;22;20015;-92
2022/05/30 17:51:48;;;;;;;0.10;0.10;;;;;;;;;;6223855;22;20008;-89
2022/05/30 17:54:14;;;;;;;0.10;0.10;;;;;;;;;;6223810;22;20012;-88
2022/05/30 17:56:41;;;;;;;0.20;0.20;;;;;;;;;;6198758;22;20091;-87
2022/05/30 17:59:07;;;;;;;0.10;0.10;;;;;;;;;;6249193;22;20011;-87
2022/05/30 18:01:33;;;;;;;0.10;0.10;;;;;;;;;;6198920;22;20082;-88
2022/05/30 18:03:59;;;;;;;0.10;0.10;;;;;;;;;;6198677;22;20011;-89
2022/05/30 18:06:30;;;;;;;0.10;0.10;;;;;;;;;;6223927;22;20673;-88
2022/05/30 18:08:58;;;;;;;0.10;0.10;;;;;;;;;;6223979;22;20039;-90
2022/05/30 18:11:41;;;;;;;0.10;0.10;;;;;;;;;;6198683;22;20091;-87
2022/05/30 18:14:13;;;;;;;0.10;0.10;;;;;;;;;;6199000;22;20012;-88
2022/05/30 18:16:53;;;;;;;0.10;0.10;;;;;;;;;;6198187;22;20088;-88
2022/05/30 18:19:38;;;;;;;0.10;0.10;;;;;;;;;;6199077;22;20019;-88
2022/05/30 18:22:07;;;;;;;0.10;0.10;;;;;;;;;;6223478;22;20019;-89
2022/05/30 18:24:36;;;;;;;0.10;0.10;;;;;;;;;;6198647;22;20061;-89